createdAt,value
2016-11-22T00:00:06.528Z,73326
2016-11-22T00:00:15.240Z,73325
2016-11-22T00:00:23.973Z,73330
2016-11-22T00:00:33.020Z,73335
2016-11-22T00:00:41.841Z,73342
2016-11-22T00:00:50.482Z,73342
2016-11-22T00:00:59.211Z,73341
2016-11-22T00:01:07.935Z,73320
2016-11-22T00:01:16.678Z,73305
2016-11-22T00:01:25.368Z,73306
2016-11-22T00:01:34.134Z,73304
2016-11-22T00:01:42.889Z,73305
2016-11-22T00:01:51.646Z,73309
2016-11-22T00:02:00.368Z,73321
2016-11-22T00:02:09.189Z,73332
2016-11-22T00:02:17.935Z,73337
2016-11-22T00:02:26.638Z,73341
2016-11-22T00:02:35.350Z,73343
2016-11-22T00:02:44.042Z,73340
2016-11-22T00:02:52.796Z,73340
2016-11-22T00:03:01.487Z,73335
2016-11-22T00:03:10.255Z,73316
2016-11-22T00:03:18.981Z,73304
2016-11-22T00:03:28.056Z,73296
2016-11-22T00:03:36.801Z,73320
2016-11-22T00:03:45.555Z,73340
2016-11-22T00:03:54.246Z,73339
2016-11-22T00:04:02.973Z,73347
2016-11-22T00:04:11.741Z,73350
2016-11-22T00:04:20.525Z,73348
2016-11-22T00:04:29.281Z,73356
2016-11-22T00:04:38.024Z,73357
2016-11-22T00:04:46.781Z,73357
2016-11-22T00:04:55.484Z,73352
2016-11-22T00:05:04.258Z,73352
2016-11-22T00:05:13.357Z,73340
2016-11-22T00:05:22.053Z,73342
2016-11-22T00:05:30.774Z,73346
2016-11-22T00:05:39.529Z,73351
2016-11-22T00:05:48.230Z,73356
2016-11-22T00:05:56.979Z,73348
2016-11-22T00:06:05.757Z,73334
2016-11-22T00:06:14.449Z,73317
2016-11-22T00:06:23.183Z,73313
2016-11-22T00:06:31.910Z,73304
2016-11-22T00:06:40.700Z,73296
2016-11-22T00:06:49.479Z,73291
2016-11-22T00:06:58.179Z,73289
2016-11-22T00:07:06.945Z,73288
2016-11-22T00:07:15.701Z,73286
2016-11-22T00:07:24.443Z,73295
2016-11-22T00:07:33.196Z,73304
2016-11-22T00:07:41.927Z,73325
2016-11-22T00:07:50.699Z,73340
2016-11-22T00:07:59.459Z,73346
2016-11-22T00:08:08.177Z,73350
2016-11-22T00:08:16.929Z,73344
2016-11-22T00:08:25.651Z,73340
2016-11-22T00:08:34.352Z,73334
2016-11-22T00:08:43.147Z,73328
2016-11-22T00:08:51.857Z,73336
2016-11-22T00:09:00.580Z,73328
2016-11-22T00:09:09.336Z,73329
2016-11-22T00:09:18.143Z,73330
2016-11-22T00:09:26.895Z,73334
2016-11-22T00:09:35.653Z,73335
2016-11-22T00:09:44.430Z,73338
2016-11-22T00:09:53.150Z,73345
2016-11-22T00:10:01.875Z,73350
2016-11-22T00:10:10.693Z,73361
2016-11-22T00:10:19.447Z,73356
2016-11-22T00:10:28.156Z,73363
2016-11-22T00:10:36.846Z,73374
2016-11-22T00:10:45.503Z,73381
2016-11-22T00:10:54.235Z,73384
2016-11-22T00:11:02.957Z,73393
2016-11-22T00:11:11.637Z,73400
2016-11-22T00:11:20.361Z,73394
2016-11-22T00:11:29.159Z,73400
2016-11-22T00:11:37.869Z,73388
2016-11-22T00:11:46.563Z,73375
2016-11-22T00:11:55.625Z,73370
2016-11-22T00:12:04.706Z,73368
2016-11-22T00:12:13.467Z,73365
2016-11-22T00:12:22.187Z,73360
2016-11-22T00:12:30.999Z,73360
2016-11-22T00:12:39.710Z,73357
2016-11-22T00:12:48.435Z,73350
2016-11-22T00:12:57.228Z,73348
2016-11-22T00:13:06.000Z,73353
2016-11-22T00:13:14.726Z,73356
2016-11-22T00:13:23.479Z,73359
2016-11-22T00:13:32.182Z,73359
2016-11-22T00:13:40.903Z,73358
2016-11-22T00:13:49.720Z,73363
2016-11-22T00:13:58.475Z,73363
2016-11-22T00:14:07.234Z,73357
2016-11-22T00:14:15.978Z,73357
2016-11-22T00:14:24.667Z,73349
2016-11-22T00:14:33.327Z,73335
2016-11-22T00:14:42.059Z,73340
2016-11-22T00:14:50.844Z,73333
2016-11-22T00:14:59.568Z,73320
2016-11-22T00:15:08.353Z,73317
2016-11-22T00:15:17.078Z,73321
2016-11-22T00:15:25.809Z,73324
2016-11-22T00:15:34.526Z,73327
2016-11-22T00:15:43.252Z,73324
2016-11-22T00:15:51.953Z,73322
2016-11-22T00:16:00.697Z,73326
2016-11-22T00:16:09.354Z,73321
2016-11-22T00:16:18.073Z,73317
2016-11-22T00:16:26.746Z,73301
2016-11-22T00:16:35.529Z,73299
2016-11-22T00:16:44.240Z,73298
2016-11-22T00:16:52.963Z,73315
2016-11-22T00:17:01.661Z,73322
2016-11-22T00:17:10.446Z,73331
2016-11-22T00:17:19.162Z,73332
2016-11-22T00:17:27.884Z,73335
2016-11-22T00:17:36.634Z,73337
2016-11-22T00:17:45.336Z,73341
2016-11-22T00:17:54.161Z,73333
2016-11-22T00:18:02.947Z,73336
2016-11-22T00:18:11.663Z,73334
2016-11-22T00:18:20.385Z,73324
2016-11-22T00:18:29.137Z,73323
2016-11-22T00:18:37.902Z,73320
2016-11-22T00:18:46.643Z,73321
2016-11-22T00:18:55.334Z,73317
2016-11-22T00:19:04.044Z,73302
2016-11-22T00:19:13.108Z,73291
2016-11-22T00:19:21.851Z,73294
2016-11-22T00:19:30.613Z,73296
2016-11-22T00:19:39.434Z,73303
2016-11-22T00:19:48.145Z,73303
2016-11-22T00:19:56.869Z,73306
2016-11-22T00:20:05.568Z,73309
2016-11-22T00:20:14.260Z,73322
2016-11-22T00:20:23.079Z,73328
2016-11-22T00:20:31.796Z,73339
2016-11-22T00:20:40.533Z,73352
2016-11-22T00:20:49.252Z,73365
2016-11-22T00:20:57.946Z,73373
2016-11-22T00:21:06.699Z,73370
2016-11-22T00:21:15.458Z,73366
2016-11-22T00:21:24.183Z,73356
2016-11-22T00:21:32.968Z,73360
2016-11-22T00:21:41.655Z,73359
2016-11-22T00:21:50.381Z,73359
2016-11-22T00:21:59.136Z,73353
2016-11-22T00:22:07.899Z,73346
2016-11-22T00:22:16.675Z,73340
2016-11-22T00:22:25.342Z,73349
2016-11-22T00:22:34.155Z,73346
2016-11-22T00:22:42.833Z,73342
2016-11-22T00:22:51.566Z,73343
2016-11-22T00:23:00.314Z,73337
2016-11-22T00:23:09.049Z,73335
2016-11-22T00:23:17.804Z,73331
2016-11-22T00:23:26.525Z,73325
2016-11-22T00:23:35.247Z,73322
2016-11-22T00:23:44.024Z,73323
2016-11-22T00:23:52.690Z,73325
2016-11-22T00:24:01.515Z,73320
2016-11-22T00:24:10.227Z,73320
2016-11-22T00:24:18.977Z,73326
2016-11-22T00:24:27.704Z,73328
2016-11-22T00:24:36.468Z,73326
2016-11-22T00:24:45.182Z,73317
2016-11-22T00:24:53.939Z,73323
2016-11-22T00:25:02.670Z,73333
2016-11-22T00:25:11.391Z,73339
2016-11-22T00:25:20.185Z,73343
2016-11-22T00:25:28.970Z,73350
2016-11-22T00:25:37.743Z,73351
2016-11-22T00:25:46.543Z,73357
2016-11-22T00:25:55.317Z,73357
2016-11-22T00:26:04.020Z,73352
2016-11-22T00:26:12.746Z,73361
2016-11-22T00:26:21.475Z,73355
2016-11-22T00:26:30.483Z,73359
2016-11-22T00:26:39.262Z,73352
2016-11-22T00:26:47.985Z,73345
2016-11-22T00:26:56.755Z,73343
2016-11-22T00:27:05.531Z,73349
2016-11-22T00:27:14.280Z,73345
2016-11-22T00:27:22.981Z,73335
2016-11-22T00:27:31.699Z,73335
2016-11-22T00:27:40.460Z,73339
2016-11-22T00:27:49.297Z,73330
2016-11-22T00:27:58.013Z,73324
2016-11-22T00:28:06.747Z,73331
2016-11-22T00:28:15.466Z,73338
2016-11-22T00:28:24.459Z,73348
2016-11-22T00:28:33.180Z,73354
2016-11-22T00:28:41.901Z,73355
2016-11-22T00:28:50.627Z,73358
2016-11-22T00:28:59.394Z,73346
2016-11-22T00:29:08.140Z,73350
2016-11-22T00:29:16.895Z,73357
2016-11-22T00:29:25.660Z,73359
2016-11-22T00:29:34.440Z,73368
2016-11-22T00:29:43.172Z,73383
2016-11-22T00:29:51.961Z,73385
2016-11-22T00:30:00.736Z,73393
2016-11-22T00:30:09.502Z,73393
2016-11-22T00:30:18.288Z,73392
2016-11-22T00:30:27.093Z,73385
2016-11-22T00:30:35.799Z,73382
2016-11-22T00:30:44.590Z,73376
2016-11-22T00:30:53.276Z,73371
2016-11-22T00:31:02.093Z,73362
2016-11-22T00:31:10.807Z,73366
2016-11-22T00:31:19.559Z,73365
2016-11-22T00:31:28.292Z,73364
2016-11-22T00:31:37.078Z,73360
2016-11-22T00:31:45.795Z,73354
2016-11-22T00:31:54.876Z,73346
2016-11-22T00:32:03.684Z,73339
2016-11-22T00:32:12.438Z,73328
2016-11-22T00:32:21.173Z,73318
2016-11-22T00:32:29.882Z,73331
2016-11-22T00:32:38.607Z,73344
2016-11-22T00:32:47.373Z,73357
2016-11-22T00:32:56.092Z,73358
2016-11-22T00:33:04.842Z,73353
2016-11-22T00:33:13.629Z,73346
2016-11-22T00:33:22.381Z,73335
2016-11-22T00:33:31.152Z,73341
2016-11-22T00:33:39.894Z,73344
2016-11-22T00:33:48.608Z,73345
2016-11-22T00:33:57.337Z,73343
2016-11-22T00:34:06.119Z,73339
2016-11-22T00:34:14.842Z,73342
2016-11-22T00:34:23.668Z,73341
2016-11-22T00:34:32.431Z,73329
2016-11-22T00:34:41.226Z,73338
2016-11-22T00:34:50.001Z,73338
2016-11-22T00:34:58.701Z,73344
2016-11-22T00:35:07.494Z,73353
2016-11-22T00:35:16.280Z,73353
2016-11-22T00:35:25.059Z,73356
2016-11-22T00:35:33.780Z,73353
2016-11-22T00:35:42.471Z,73353
2016-11-22T00:35:51.235Z,73351
2016-11-22T00:35:59.995Z,73343
2016-11-22T00:36:08.804Z,73350
2016-11-22T00:36:17.560Z,73355
2016-11-22T00:36:26.314Z,73352
2016-11-22T00:36:35.048Z,73353
2016-11-22T00:36:43.761Z,73354
2016-11-22T00:36:52.495Z,73355
2016-11-22T00:37:01.248Z,73363
2016-11-22T00:37:09.985Z,73373
2016-11-22T00:37:18.706Z,73373
2016-11-22T00:37:27.451Z,73365
2016-11-22T00:37:36.187Z,73360
2016-11-22T00:37:44.867Z,73353
2016-11-22T00:37:53.630Z,73351
2016-11-22T00:38:02.390Z,73345
2016-11-22T00:38:11.133Z,73346
2016-11-22T00:38:19.898Z,73344
2016-11-22T00:38:28.640Z,73351
2016-11-22T00:38:37.398Z,73354
2016-11-22T00:38:46.093Z,73364
2016-11-22T00:38:54.792Z,73380
2016-11-22T00:39:03.582Z,73380
2016-11-22T00:39:12.295Z,73384
2016-11-22T00:39:21.029Z,73375
2016-11-22T00:39:29.769Z,73360
2016-11-22T00:39:38.554Z,73349
2016-11-22T00:39:47.322Z,73344
2016-11-22T00:39:56.035Z,73344
2016-11-22T00:40:04.726Z,73357
2016-11-22T00:40:13.524Z,73355
2016-11-22T00:40:22.343Z,73360
2016-11-22T00:40:31.053Z,73368
2016-11-22T00:40:39.785Z,73374
2016-11-22T00:40:48.488Z,73375
2016-11-22T00:40:57.157Z,73378
2016-11-22T00:41:05.939Z,73381
2016-11-22T00:41:14.664Z,73384
2016-11-22T00:41:23.390Z,73390
2016-11-22T00:41:32.215Z,73391
2016-11-22T00:41:40.908Z,73386
2016-11-22T00:41:49.693Z,73389
2016-11-22T00:41:58.417Z,73389
2016-11-22T00:42:07.153Z,73384
2016-11-22T00:42:15.896Z,73384
2016-11-22T00:42:24.619Z,73385
2016-11-22T00:42:33.320Z,73386
2016-11-22T00:42:42.066Z,73379
2016-11-22T00:42:50.788Z,73378
2016-11-22T00:42:59.546Z,73371
2016-11-22T00:43:08.302Z,73364
2016-11-22T00:43:17.023Z,73360
2016-11-22T00:43:25.754Z,73355
2016-11-22T00:43:34.510Z,73353
2016-11-22T00:43:43.315Z,73342
2016-11-22T00:43:52.050Z,73329
2016-11-22T00:44:00.794Z,73340
2016-11-22T00:44:09.497Z,73346
2016-11-22T00:44:18.218Z,73361
2016-11-22T00:44:26.972Z,73362
2016-11-22T00:44:35.762Z,73366
2016-11-22T00:44:44.508Z,73387
2016-11-22T00:44:53.164Z,73401
2016-11-22T00:45:01.926Z,73405
2016-11-22T00:45:10.681Z,73403
2016-11-22T00:45:19.372Z,73396
2016-11-22T00:45:28.124Z,73393
2016-11-22T00:45:36.825Z,73393
2016-11-22T00:45:45.601Z,73383
2016-11-22T00:45:54.298Z,73374
2016-11-22T00:46:03.087Z,73361
2016-11-22T00:46:11.870Z,73349
2016-11-22T00:46:20.645Z,73338
2016-11-22T00:46:29.408Z,73329
2016-11-22T00:46:38.204Z,73325
2016-11-22T00:46:46.890Z,73314
2016-11-22T00:46:55.891Z,73319
2016-11-22T00:47:04.685Z,73314
2016-11-22T00:47:13.457Z,73317
2016-11-22T00:47:22.183Z,73328
2016-11-22T00:47:30.976Z,73359
2016-11-22T00:47:39.953Z,73380
2016-11-22T00:47:48.723Z,73387
2016-11-22T00:47:57.499Z,73382
2016-11-22T00:48:06.282Z,73375
2016-11-22T00:48:15.015Z,73359
2016-11-22T00:48:23.791Z,73346
2016-11-22T00:48:32.518Z,73327
2016-11-22T00:48:41.315Z,73320
2016-11-22T00:48:50.110Z,73321
2016-11-22T00:48:58.896Z,73328
2016-11-22T00:49:07.660Z,73333
2016-11-22T00:49:16.379Z,73337
2016-11-22T00:49:25.099Z,73337
2016-11-22T00:49:33.824Z,73341
2016-11-22T00:49:42.581Z,73339
2016-11-22T00:49:51.349Z,73341
2016-11-22T00:50:00.061Z,73337
2016-11-22T00:50:08.751Z,73335
2016-11-22T00:50:17.507Z,73339
2016-11-22T00:50:26.260Z,73337
2016-11-22T00:50:35.014Z,73337
2016-11-22T00:50:43.716Z,73338
2016-11-22T00:50:52.461Z,73342
2016-11-22T00:51:01.444Z,73344
2016-11-22T00:51:10.164Z,73352
2016-11-22T00:51:18.854Z,73364
2016-11-22T00:51:27.578Z,73364
2016-11-22T00:51:36.337Z,73363
2016-11-22T00:51:45.035Z,73351
2016-11-22T00:51:53.814Z,73343
2016-11-22T00:52:02.514Z,73330
2016-11-22T00:52:11.262Z,73331
2016-11-22T00:52:20.030Z,73336
2016-11-22T00:52:28.774Z,73356
2016-11-22T00:52:37.444Z,73357
2016-11-22T00:52:46.171Z,73360
2016-11-22T00:52:54.925Z,73356
2016-11-22T00:53:03.735Z,73353
2016-11-22T00:53:12.442Z,73348
2016-11-22T00:53:21.152Z,73338
2016-11-22T00:53:29.855Z,73337
2016-11-22T00:53:38.596Z,73345
2016-11-22T00:53:47.331Z,73347
2016-11-22T00:53:56.070Z,73345
2016-11-22T00:54:04.772Z,73345
2016-11-22T00:54:13.539Z,73348
2016-11-22T00:54:22.325Z,73347
2016-11-22T00:54:31.087Z,73347
2016-11-22T00:54:39.842Z,73352
2016-11-22T00:54:48.617Z,73347
2016-11-22T00:54:57.371Z,73343
2016-11-22T00:55:06.060Z,73342
2016-11-22T00:55:15.128Z,73341
2016-11-22T00:55:23.818Z,73335
2016-11-22T00:55:32.555Z,73340
2016-11-22T00:55:41.265Z,73327
2016-11-22T00:55:49.954Z,73327
2016-11-22T00:55:58.709Z,73320
2016-11-22T00:56:07.463Z,73332
2016-11-22T00:56:16.196Z,73334
2016-11-22T00:56:24.908Z,73345
2016-11-22T00:56:33.608Z,73354
2016-11-22T00:56:42.288Z,73360
2016-11-22T00:56:51.023Z,73368
2016-11-22T00:56:59.864Z,73362
2016-11-22T00:57:08.607Z,73361
2016-11-22T00:57:17.360Z,73361
2016-11-22T00:57:26.096Z,73357
2016-11-22T00:57:34.787Z,73350
2016-11-22T00:57:43.528Z,73340
2016-11-22T00:57:52.266Z,73331
2016-11-22T00:58:01.056Z,73321
2016-11-22T00:58:09.797Z,73313
2016-11-22T00:58:18.520Z,73313
2016-11-22T00:58:27.255Z,73308
2016-11-22T00:58:36.010Z,73316
2016-11-22T00:58:44.725Z,73325
2016-11-22T00:58:53.444Z,73324
2016-11-22T00:59:02.242Z,73327
2016-11-22T00:59:10.953Z,73327
2016-11-22T00:59:19.645Z,73342
2016-11-22T00:59:28.411Z,73344
2016-11-22T00:59:37.122Z,73342
2016-11-22T00:59:45.848Z,73340
2016-11-22T00:59:54.569Z,73343
2016-11-22T01:00:03.269Z,73334
2016-11-22T01:00:11.984Z,73331
2016-11-22T01:00:20.718Z,73334
2016-11-22T01:00:29.495Z,73331
2016-11-22T01:00:38.254Z,73328
2016-11-22T01:00:46.940Z,73332
2016-11-22T01:00:55.668Z,73332
2016-11-22T01:01:04.361Z,73333
2016-11-22T01:01:13.095Z,73340
2016-11-22T01:01:21.815Z,73320
2016-11-22T01:01:30.598Z,73324
2016-11-22T01:01:39.284Z,73314
2016-11-22T01:01:48.063Z,73328
2016-11-22T01:01:56.783Z,73345
2016-11-22T01:02:05.494Z,73336
2016-11-22T01:02:14.307Z,73335
2016-11-22T01:02:23.037Z,73333
2016-11-22T01:02:31.790Z,73324
2016-11-22T01:02:40.574Z,73339
2016-11-22T01:02:49.336Z,73340
2016-11-22T01:02:58.090Z,73334
2016-11-22T01:03:06.847Z,73346
2016-11-22T01:03:15.919Z,73329
2016-11-22T01:03:24.662Z,73306
2016-11-22T01:03:33.448Z,73357
2016-11-22T01:03:42.148Z,73381
2016-11-22T01:03:50.895Z,73384
2016-11-22T01:03:59.621Z,73391
2016-11-22T01:04:08.369Z,73399
2016-11-22T01:04:17.155Z,73397
2016-11-22T01:04:25.855Z,73384
2016-11-22T01:04:34.577Z,73367
2016-11-22T01:04:43.299Z,73361
2016-11-22T01:04:52.093Z,73365
2016-11-22T01:05:00.810Z,73374
2016-11-22T01:05:09.566Z,73381
2016-11-22T01:05:18.331Z,73369
2016-11-22T01:05:27.153Z,73364
2016-11-22T01:05:35.863Z,73372
2016-11-22T01:05:44.623Z,73380
2016-11-22T01:05:53.382Z,73384
2016-11-22T01:06:02.145Z,73371
2016-11-22T01:06:10.958Z,73379
2016-11-22T01:06:19.750Z,73384
2016-11-22T01:06:28.511Z,73377
2016-11-22T01:06:37.302Z,73384
2016-11-22T01:06:46.025Z,73377
2016-11-22T01:06:54.766Z,73378
2016-11-22T01:07:03.494Z,73374
2016-11-22T01:07:12.238Z,73374
2016-11-22T01:07:21.038Z,73376
2016-11-22T01:07:29.822Z,73374
2016-11-22T01:07:38.546Z,73371
2016-11-22T01:07:47.315Z,73365
2016-11-22T01:07:56.116Z,73367
2016-11-22T01:08:04.797Z,73367
2016-11-22T01:08:13.550Z,73369
2016-11-22T01:08:22.270Z,73364
2016-11-22T01:08:30.955Z,73366
2016-11-22T01:08:39.677Z,73369
2016-11-22T01:08:48.411Z,73365
2016-11-22T01:08:57.131Z,73363
2016-11-22T01:09:05.910Z,73360
2016-11-22T01:09:14.662Z,73351
2016-11-22T01:09:23.417Z,73346
2016-11-22T01:09:32.114Z,73337
2016-11-22T01:09:41.050Z,73333
2016-11-22T01:09:49.820Z,73322
2016-11-22T01:09:58.883Z,73329
2016-11-22T01:10:07.576Z,73342
2016-11-22T01:10:16.330Z,73350
2016-11-22T01:10:25.095Z,73354
2016-11-22T01:10:33.817Z,73357
2016-11-22T01:10:42.507Z,73351
2016-11-22T01:10:51.206Z,73349
2016-11-22T01:11:00.214Z,73342
2016-11-22T01:11:08.950Z,73337
2016-11-22T01:11:17.702Z,73335
2016-11-22T01:11:26.412Z,73331
2016-11-22T01:11:35.141Z,73336
2016-11-22T01:11:43.850Z,73338
2016-11-22T01:11:52.640Z,73339
2016-11-22T01:12:01.442Z,73333
2016-11-22T01:12:10.184Z,73339
2016-11-22T01:12:18.947Z,73347
2016-11-22T01:12:27.758Z,73348
2016-11-22T01:12:36.492Z,73358
2016-11-22T01:12:45.240Z,73359
2016-11-22T01:12:53.944Z,73360
2016-11-22T01:13:02.632Z,73358
2016-11-22T01:13:11.445Z,73360
2016-11-22T01:13:20.136Z,73362
2016-11-22T01:13:28.836Z,73359
2016-11-22T01:13:37.549Z,73348
2016-11-22T01:13:46.209Z,73343
2016-11-22T01:13:54.940Z,73352
2016-11-22T01:14:03.694Z,73344
2016-11-22T01:14:12.459Z,73355
2016-11-22T01:14:21.189Z,73363
2016-11-22T01:14:29.902Z,73361
2016-11-22T01:14:38.659Z,73362
2016-11-22T01:14:47.394Z,73360
2016-11-22T01:14:56.174Z,73355
2016-11-22T01:15:04.928Z,73356
2016-11-22T01:15:13.695Z,73356
2016-11-22T01:15:22.449Z,73360
2016-11-22T01:15:31.211Z,73362
2016-11-22T01:15:39.934Z,73358
2016-11-22T01:15:48.643Z,73363
2016-11-22T01:15:57.403Z,73357
2016-11-22T01:16:06.395Z,73357
2016-11-22T01:16:15.150Z,73356
2016-11-22T01:16:23.949Z,73348
2016-11-22T01:16:32.741Z,73347
2016-11-22T01:16:41.464Z,73340
2016-11-22T01:16:50.208Z,73341
2016-11-22T01:16:58.934Z,73344
2016-11-22T01:17:07.652Z,73353
2016-11-22T01:17:16.399Z,73360
2016-11-22T01:17:25.101Z,73351
2016-11-22T01:17:33.854Z,73351
2016-11-22T01:17:42.600Z,73349
2016-11-22T01:17:51.386Z,73352
2016-11-22T01:18:00.154Z,73349
2016-11-22T01:18:08.905Z,73349
2016-11-22T01:18:17.665Z,73357
2016-11-22T01:18:26.437Z,73357
2016-11-22T01:18:35.204Z,73361
2016-11-22T01:18:43.948Z,73360
2016-11-22T01:18:52.747Z,73362
2016-11-22T01:19:01.495Z,73361
2016-11-22T01:19:10.217Z,73361
2016-11-22T01:19:18.940Z,73355
2016-11-22T01:19:27.670Z,73350
2016-11-22T01:19:36.382Z,73341
2016-11-22T01:19:45.129Z,73346
2016-11-22T01:19:53.822Z,73353
2016-11-22T01:20:02.836Z,73360
2016-11-22T01:20:11.541Z,73372
2016-11-22T01:20:20.264Z,73373
2016-11-22T01:20:28.990Z,73371
2016-11-22T01:20:38.066Z,73369
2016-11-22T01:20:46.823Z,73371
2016-11-22T01:20:55.612Z,73370
2016-11-22T01:21:04.335Z,73369
2016-11-22T01:21:13.080Z,73370
2016-11-22T01:21:21.794Z,73373
2016-11-22T01:21:30.471Z,73372
2016-11-22T01:21:39.235Z,73367
2016-11-22T01:21:47.953Z,73368
2016-11-22T01:21:56.707Z,73361
2016-11-22T01:22:05.484Z,73344
2016-11-22T01:22:14.154Z,73343
2016-11-22T01:22:22.899Z,73340
2016-11-22T01:22:31.656Z,73342
2016-11-22T01:22:40.406Z,73343
2016-11-22T01:22:49.141Z,73348
2016-11-22T01:22:57.888Z,73354
2016-11-22T01:23:06.658Z,73361
2016-11-22T01:23:15.444Z,73356
2016-11-22T01:23:24.220Z,73356
2016-11-22T01:23:32.956Z,73351
2016-11-22T01:23:41.690Z,73337
2016-11-22T01:23:50.443Z,73344
2016-11-22T01:23:59.222Z,73351
2016-11-22T01:24:07.944Z,73362
2016-11-22T01:24:16.679Z,73368
2016-11-22T01:24:25.424Z,73369
2016-11-22T01:24:34.130Z,73369
2016-11-22T01:24:42.907Z,73368
2016-11-22T01:24:51.636Z,73368
2016-11-22T01:25:00.425Z,73374
2016-11-22T01:25:09.170Z,73368
2016-11-22T01:25:17.952Z,73365
2016-11-22T01:25:26.679Z,73364
2016-11-22T01:25:35.436Z,73360
2016-11-22T01:25:44.140Z,73376
2016-11-22T01:25:52.884Z,73358
2016-11-22T01:26:01.682Z,73365
2016-11-22T01:26:10.465Z,73371
2016-11-22T01:26:19.190Z,73374
2016-11-22T01:26:27.912Z,73376
2016-11-22T01:26:36.653Z,73375
2016-11-22T01:26:45.439Z,73373
2016-11-22T01:26:54.223Z,73368
2016-11-22T01:27:02.960Z,73367
2016-11-22T01:27:11.702Z,73364
2016-11-22T01:27:20.404Z,73370
2016-11-22T01:27:29.113Z,73380
2016-11-22T01:27:37.792Z,73373
2016-11-22T01:27:46.815Z,73382
2016-11-22T01:27:55.561Z,73380
2016-11-22T01:28:04.286Z,73372
2016-11-22T01:28:12.942Z,73362
2016-11-22T01:28:21.627Z,73352
2016-11-22T01:28:30.413Z,73343
2016-11-22T01:28:39.145Z,73343
2016-11-22T01:28:47.887Z,73326
2016-11-22T01:28:56.576Z,73332
2016-11-22T01:29:05.367Z,73344
2016-11-22T01:29:14.136Z,73350
2016-11-22T01:29:22.878Z,73364
2016-11-22T01:29:31.633Z,73369
2016-11-22T01:29:40.366Z,73379
2016-11-22T01:29:49.172Z,73381
2016-11-22T01:29:57.904Z,73383
2016-11-22T01:30:06.619Z,73384
2016-11-22T01:30:15.362Z,73381
2016-11-22T01:30:24.132Z,73379
2016-11-22T01:30:32.793Z,73373
2016-11-22T01:30:41.456Z,73380
2016-11-22T01:30:50.178Z,73382
2016-11-22T01:30:58.858Z,73382
2016-11-22T01:31:07.547Z,73391
2016-11-22T01:31:16.249Z,73389
2016-11-22T01:31:24.955Z,73388
2016-11-22T01:31:33.722Z,73382
2016-11-22T01:31:42.482Z,73368
2016-11-22T01:31:51.197Z,73374
2016-11-22T01:31:59.933Z,73371
2016-11-22T01:32:08.755Z,73376
2016-11-22T01:32:17.543Z,73376
2016-11-22T01:32:26.327Z,73377
2016-11-22T01:32:35.122Z,73376
2016-11-22T01:32:43.861Z,73374
2016-11-22T01:32:52.662Z,73372
2016-11-22T01:33:01.384Z,73369
2016-11-22T01:33:10.138Z,73367
2016-11-22T01:33:19.168Z,73364
2016-11-22T01:33:27.826Z,73387
2016-11-22T01:33:36.548Z,73396
2016-11-22T01:33:45.284Z,73393
2016-11-22T01:33:53.962Z,73397
2016-11-22T01:34:02.732Z,73391
2016-11-22T01:34:11.477Z,73391
2016-11-22T01:34:20.249Z,73391
2016-11-22T01:34:28.971Z,73381
2016-11-22T01:34:37.682Z,73380
2016-11-22T01:34:46.498Z,73384
2016-11-22T01:34:55.188Z,73377
2016-11-22T01:35:03.928Z,73364
2016-11-22T01:35:12.677Z,73366
2016-11-22T01:35:21.472Z,73368
2016-11-22T01:35:30.225Z,73385
2016-11-22T01:35:38.984Z,73396
2016-11-22T01:35:47.739Z,73401
2016-11-22T01:35:56.417Z,73405
2016-11-22T01:36:05.129Z,73403
2016-11-22T01:36:14.154Z,73397
2016-11-22T01:36:22.899Z,73392
2016-11-22T01:36:31.662Z,73380
2016-11-22T01:36:40.466Z,73379
2016-11-22T01:36:49.175Z,73375
2016-11-22T01:36:57.936Z,73372
2016-11-22T01:37:06.636Z,73363
2016-11-22T01:37:15.377Z,73356
2016-11-22T01:37:24.098Z,73357
2016-11-22T01:37:32.866Z,73361
2016-11-22T01:37:41.609Z,73363
2016-11-22T01:37:50.333Z,73378
2016-11-22T01:37:59.065Z,73383
2016-11-22T01:38:07.807Z,73378
2016-11-22T01:38:16.518Z,73372
2016-11-22T01:38:25.236Z,73373
2016-11-22T01:38:34.000Z,73369
2016-11-22T01:38:42.755Z,73360
2016-11-22T01:38:51.476Z,73358
2016-11-22T01:39:00.185Z,73372
2016-11-22T01:39:08.873Z,73369
2016-11-22T01:39:17.595Z,73363
2016-11-22T01:39:26.569Z,73365
2016-11-22T01:39:35.324Z,73362
2016-11-22T01:39:44.086Z,73354
2016-11-22T01:39:52.953Z,73356
2016-11-22T01:40:01.665Z,73358
2016-11-22T01:40:10.450Z,73363
2016-11-22T01:40:19.170Z,73366
2016-11-22T01:40:28.007Z,73362
2016-11-22T01:40:36.758Z,73363
2016-11-22T01:40:45.515Z,73362
2016-11-22T01:40:54.267Z,73362
2016-11-22T01:41:03.055Z,73360
2016-11-22T01:41:11.834Z,73355
2016-11-22T01:41:20.524Z,73352
2016-11-22T01:41:29.261Z,73355
2016-11-22T01:41:38.015Z,73356
2016-11-22T01:41:46.729Z,73369
2016-11-22T01:41:55.447Z,73367
2016-11-22T01:42:04.147Z,73370
2016-11-22T01:42:12.892Z,73371
2016-11-22T01:42:21.627Z,73371
2016-11-22T01:42:30.376Z,73373
2016-11-22T01:42:39.139Z,73364
2016-11-22T01:42:47.841Z,73348
2016-11-22T01:42:56.588Z,73351
2016-11-22T01:43:05.344Z,73355
2016-11-22T01:43:14.111Z,73361
2016-11-22T01:43:22.896Z,73359
2016-11-22T01:43:31.669Z,73364
2016-11-22T01:43:40.346Z,73360
2016-11-22T01:43:49.132Z,73352
2016-11-22T01:43:57.885Z,73358
2016-11-22T01:44:06.608Z,73353
2016-11-22T01:44:15.392Z,73353
2016-11-22T01:44:24.165Z,73354
2016-11-22T01:44:32.883Z,73362
2016-11-22T01:44:41.622Z,73371
2016-11-22T01:44:50.675Z,73378
2016-11-22T01:44:59.419Z,73386
2016-11-22T01:45:08.154Z,73392
2016-11-22T01:45:16.849Z,73390
2016-11-22T01:45:25.592Z,73385
2016-11-22T01:45:34.381Z,73381
2016-11-22T01:45:43.087Z,73386
2016-11-22T01:45:51.796Z,73379
2016-11-22T01:46:00.549Z,73372
2016-11-22T01:46:09.262Z,73372
2016-11-22T01:46:17.990Z,73374
2016-11-22T01:46:26.714Z,73374
2016-11-22T01:46:35.468Z,73368
2016-11-22T01:46:44.223Z,73358
2016-11-22T01:46:52.931Z,73351
2016-11-22T01:47:01.686Z,73354
2016-11-22T01:47:10.417Z,73354
2016-11-22T01:47:19.141Z,73346
2016-11-22T01:47:27.830Z,73362
2016-11-22T01:47:36.572Z,73363
2016-11-22T01:47:45.288Z,73370
2016-11-22T01:47:53.984Z,73381
2016-11-22T01:48:02.756Z,73379
2016-11-22T01:48:11.486Z,73383
2016-11-22T01:48:20.206Z,73386
2016-11-22T01:48:28.947Z,73388
2016-11-22T01:48:37.667Z,73385
2016-11-22T01:48:46.431Z,73383
2016-11-22T01:48:55.176Z,73384
2016-11-22T01:49:03.928Z,73386
2016-11-22T01:49:12.665Z,73389
2016-11-22T01:49:21.461Z,73386
2016-11-22T01:49:30.236Z,73379
2016-11-22T01:49:38.961Z,73378
2016-11-22T01:49:47.651Z,73376
2016-11-22T01:49:56.320Z,73378
2016-11-22T01:50:05.053Z,73373
2016-11-22T01:50:13.804Z,73370
2016-11-22T01:50:22.525Z,73369
2016-11-22T01:50:31.276Z,73362
2016-11-22T01:50:40.001Z,73366
2016-11-22T01:50:48.717Z,73360
2016-11-22T01:50:57.453Z,73353
2016-11-22T01:51:06.207Z,73353
2016-11-22T01:51:15.012Z,73355
2016-11-22T01:51:23.719Z,73356
2016-11-22T01:51:32.450Z,73356
2016-11-22T01:51:41.149Z,73356
2016-11-22T01:51:49.895Z,73352
2016-11-22T01:51:58.598Z,73344
2016-11-22T01:52:07.318Z,73340
2016-11-22T01:52:16.049Z,73354
2016-11-22T01:52:24.819Z,73353
2016-11-22T01:52:33.519Z,73366
2016-11-22T01:52:42.307Z,73370